createdAt,value
2018-09-22T00:02:04.416Z,14.24
2018-09-22T00:06:05.098Z,14.23
2018-09-22T00:08:05.787Z,13.7
2018-09-22T00:12:06.486Z,13.43
2018-09-22T00:18:07.176Z,13.43
2018-09-22T00:22:07.917Z,13.35
2018-09-22T00:28:08.648Z,13.61
2018-09-22T00:34:09.388Z,13.38
2018-09-22T00:38:10.205Z,13.02
2018-09-22T00:44:10.966Z,13.55
2018-09-22T00:48:11.750Z,13.65
2018-09-22T00:54:12.540Z,13.92
2018-09-22T01:00:13.639Z,14.08
2018-09-22T01:04:14.415Z,13.61
2018-09-22T01:10:15.129Z,13.38
2018-09-22T01:14:15.913Z,13.44
2018-09-22T01:20:16.602Z,14.37
2018-09-22T01:26:17.335Z,14.09
2018-09-22T01:30:18.312Z,13.05
2018-09-22T01:36:21.264Z,14.04
2018-09-22T01:40:21.203Z,13.49
2018-09-22T01:46:20.566Z,14.12
2018-09-22T01:52:21.556Z,14.41
2018-09-22T01:56:22.121Z,13.76
2018-09-22T02:02:23.031Z,14.67
2018-09-22T02:06:23.743Z,13.89
2018-09-22T02:12:24.609Z,13.66
2018-09-22T02:18:25.467Z,14.39
2018-09-22T02:22:26.178Z,14.04
2018-09-22T02:28:27.029Z,13.93
2018-09-22T02:32:27.943Z,13.33
2018-09-22T02:38:28.712Z,14.75
2018-09-22T02:44:29.651Z,14.26
2018-09-22T02:48:30.468Z,13.27
2018-09-22T02:54:31.296Z,15.04
2018-09-22T02:58:32.090Z,13.75
2018-09-22T03:00:35.359Z,14.1
2018-09-22T03:04:34.176Z,13.62
2018-09-22T03:10:35.011Z,14.62
2018-09-22T03:14:35.782Z,14.95
2018-09-22T03:20:36.490Z,14.43
2018-09-22T03:24:37.303Z,13.9
2018-09-22T03:26:37.953Z,13.35
2018-09-22T03:30:40.475Z,13.63
2018-09-22T03:36:39.571Z,13.87
2018-09-22T03:40:40.280Z,13.21
2018-09-22T03:46:41.214Z,14.15
2018-09-22T03:50:44.685Z,13.14
2018-09-22T03:52:46.717Z,14.41
2018-09-22T03:56:43.309Z,13.63
2018-09-22T04:02:44.078Z,14.3
2018-09-22T04:06:44.811Z,13.71
2018-09-22T04:12:45.656Z,15.09
2018-09-22T04:16:46.503Z,14.22
2018-09-22T04:18:47.289Z,13.27
2018-09-22T04:22:47.995Z,13.66
2018-09-22T04:28:48.740Z,14.44
2018-09-22T04:32:49.548Z,13.75
2018-09-22T04:38:50.191Z,14.31
2018-09-22T04:42:50.938Z,14.3
2018-09-22T04:44:51.578Z,13.62
2018-09-22T04:48:56.512Z,14.54
2018-09-22T04:54:53.133Z,17.67
2018-09-22T04:58:53.894Z,15.06
2018-09-22T05:04:54.622Z,14.53
2018-09-22T05:08:55.269Z,14.53
2018-09-22T05:10:56.000Z,14.03
2018-09-22T05:14:56.746Z,14.06
2018-09-22T05:20:59.075Z,15.15
2018-09-22T05:24:58.197Z,15.39
2018-09-22T05:30:58.993Z,15.3
2018-09-22T05:34:59.830Z,14.45
2018-09-22T05:37:00.610Z,14.55
2018-09-22T05:41:01.432Z,14.25
2018-09-22T05:47:02.208Z,14.88
2018-09-22T05:51:02.972Z,14.66
2018-09-22T05:57:03.727Z,16.53
2018-09-22T06:01:08.457Z,15.41
2018-09-22T06:03:05.126Z,15.45
2018-09-22T06:07:05.905Z,15.18
2018-09-22T06:13:06.660Z,15.29
2018-09-22T06:17:07.372Z,15.56
2018-09-22T06:23:08.180Z,16.27
2018-09-22T06:29:09.158Z,17.48
2018-09-22T06:33:09.808Z,17.02
2018-09-22T06:39:10.556Z,16.76
2018-09-22T06:43:11.295Z,17.33
2018-09-22T06:49:12.040Z,19.8
2018-09-22T06:55:12.888Z,18.84
2018-09-22T06:59:13.569Z,18.62
2018-09-22T07:05:14.392Z,18.7
2018-09-22T07:09:15.296Z,17.72
2018-09-22T07:15:16.274Z,19.31
2018-09-22T07:21:17.090Z,19.11
2018-09-22T07:25:17.767Z,18.04
2018-09-22T07:31:18.455Z,18.29
2018-09-22T07:35:19.213Z,19.84
2018-09-22T07:41:20.047Z,25.25
2018-09-22T07:47:20.754Z,18.68
2018-09-22T07:51:23.266Z,17.97
2018-09-22T07:57:22.242Z,19.17
2018-09-22T08:01:23.643Z,19.29
2018-09-22T08:07:28.587Z,17.73
2018-09-22T08:13:25.275Z,19.74
2018-09-22T08:17:25.926Z,19.3
2018-09-22T08:23:26.786Z,19.65
2018-09-22T08:27:27.496Z,19
2018-09-22T08:33:28.269Z,19.31
2018-09-22T08:39:29.172Z,19.5
2018-09-22T08:43:29.913Z,18.27
2018-09-22T08:49:30.772Z,17.46
2018-09-22T08:53:31.824Z,17.6
2018-09-22T08:55:32.489Z,17.79
2018-09-22T08:59:33.242Z,16.71
2018-09-22T09:05:34.111Z,16.13
2018-09-22T09:09:34.895Z,16.4
2018-09-22T09:15:35.754Z,15.46
2018-09-22T09:19:36.916Z,15.14
2018-09-22T09:21:39.684Z,15.25
2018-09-22T09:25:38.894Z,14.71
2018-09-22T09:31:39.884Z,14.51
2018-09-22T09:35:40.765Z,13.85
2018-09-22T09:41:41.663Z,12.7
2018-09-22T09:45:42.496Z,13.41
2018-09-22T09:47:43.508Z,14.44
2018-09-22T09:51:44.779Z,13.59
2018-09-22T09:57:45.772Z,14.75
2018-09-22T10:01:48.652Z,13.62
2018-09-22T10:07:47.400Z,13.44
2018-09-22T10:11:48.191Z,13.31
2018-09-22T10:13:48.812Z,11.88
2018-09-22T10:17:49.529Z,11.75
2018-09-22T10:23:50.285Z,11.72
2018-09-22T10:27:51.034Z,11.25
2018-09-22T10:33:51.885Z,11.91
2018-09-22T10:37:52.720Z,11.24
2018-09-22T10:39:53.576Z,12.22
2018-09-22T10:43:54.200Z,11.54
2018-09-22T10:49:54.883Z,9.55
2018-09-22T10:53:55.807Z,9.19
2018-09-22T10:59:56.541Z,9.97
2018-09-22T11:03:57.277Z,9.35
2018-09-22T11:05:57.987Z,9.92
2018-09-22T11:09:58.830Z,9.18
2018-09-22T11:15:59.606Z,11.39
2018-09-22T11:20:00.511Z,10.99
2018-09-22T11:26:01.366Z,11.15
2018-09-22T11:30:02.203Z,10.21
2018-09-22T11:32:03.224Z,10.23
2018-09-22T11:36:04.091Z,10.21
2018-09-22T11:42:04.777Z,10.07
2018-09-22T11:46:05.574Z,9.74
2018-09-22T11:52:06.392Z,9.93
2018-09-22T11:58:07.185Z,10.32
2018-09-22T12:02:09.636Z,9.39
2018-09-22T12:08:08.805Z,9.84
2018-09-22T12:12:13.701Z,9.5
2018-09-22T12:18:10.382Z,9.98
2018-09-22T12:24:11.124Z,10.05
2018-09-22T12:28:11.839Z,9.63
2018-09-22T12:34:12.634Z,10.54
2018-09-22T12:38:13.461Z,10.15
2018-09-22T12:44:14.444Z,9.65
2018-09-22T12:50:15.146Z,9.34
2018-09-22T12:54:15.931Z,8.74
2018-09-22T13:00:17.112Z,9.7
2018-09-22T13:04:18.976Z,8.83
2018-09-22T13:10:18.704Z,8.51
2018-09-22T13:16:19.356Z,8.24
2018-09-22T13:20:20.533Z,7.75
2018-09-22T13:26:21.178Z,7.58
2018-09-22T13:30:22.304Z,7.91
2018-09-22T13:36:23.224Z,8.59
2018-09-22T13:42:23.963Z,8.25
2018-09-22T13:46:24.663Z,7.96
2018-09-22T13:52:25.496Z,8.68
2018-09-22T13:56:26.287Z,7.64
2018-09-22T13:58:26.954Z,8.71
2018-09-22T14:02:27.699Z,8.13
2018-09-22T14:08:28.589Z,8.98
2018-09-22T14:12:29.300Z,8.63
2018-09-22T14:18:29.954Z,8.19
2018-09-22T14:22:30.746Z,8.17
2018-09-22T14:24:31.578Z,8.88
2018-09-22T14:28:32.344Z,8.35
2018-09-22T14:34:37.233Z,9.74
2018-09-22T14:38:33.872Z,8.32
2018-09-22T14:44:34.614Z,8.37
2018-09-22T14:48:35.308Z,8.34
2018-09-22T14:50:36.044Z,8.48
2018-09-22T14:54:36.856Z,8.74
2018-09-22T15:00:37.570Z,9.02
2018-09-22T15:04:38.295Z,8.55
2018-09-22T15:10:39.132Z,9.43
2018-09-22T15:14:40.899Z,9.24
2018-09-22T15:16:41.583Z,8.85
2018-09-22T15:20:42.353Z,8.37
2018-09-22T15:26:43.139Z,8.98
2018-09-22T15:30:43.958Z,9.29
2018-09-22T15:36:44.731Z,9.42
2018-09-22T15:42:45.575Z,9.32
2018-09-22T15:46:46.385Z,8.75
2018-09-22T15:52:47.181Z,9.19
2018-09-22T15:56:47.909Z,8.87
2018-09-22T16:02:48.588Z,8.67
2018-09-22T16:08:49.397Z,10.24
2018-09-22T16:12:50.066Z,9.99
2018-09-22T16:18:50.849Z,9.65
2018-09-22T16:22:51.652Z,9.54
2018-09-22T16:28:52.471Z,10.05
2018-09-22T16:34:53.211Z,10.86
2018-09-22T16:38:53.944Z,12.14
2018-09-22T16:44:54.755Z,10.66
2018-09-22T16:49:01.197Z,10.34
2018-09-22T16:55:01.986Z,10.69
2018-09-22T17:01:02.777Z,11
2018-09-22T17:05:03.536Z,10.84
2018-09-22T17:11:04.364Z,11.59
2018-09-22T17:15:05.166Z,10.83
2018-09-22T17:21:05.861Z,10.55
2018-09-22T17:27:06.737Z,11.96
2018-09-22T17:31:07.716Z,11.46
2018-09-22T17:37:08.414Z,12.02
2018-09-22T17:41:09.327Z,11.72
2018-09-22T17:47:10.028Z,11.61
2018-09-22T17:53:10.831Z,15.7
2018-09-22T17:57:11.618Z,14.87
2018-09-22T18:03:12.636Z,12.24
2018-09-22T18:07:13.393Z,11.63
2018-09-22T18:09:14.243Z,12.6
2018-09-22T18:13:15.460Z,13.28
2018-09-22T18:19:15.740Z,14.06
2018-09-22T18:23:16.468Z,13.74
2018-09-22T18:29:17.206Z,14.22
2018-09-22T18:33:17.947Z,14.27
2018-09-22T18:35:18.671Z,14.38
2018-09-22T18:39:19.436Z,13.51
2018-09-22T18:45:20.576Z,13.06
2018-09-22T18:49:21.338Z,12.59
2018-09-22T18:55:22.136Z,10.71
2018-09-22T18:59:22.866Z,11.29
2018-09-22T19:01:23.623Z,10.89
2018-09-22T19:05:24.428Z,10.78
2018-09-22T19:11:26.137Z,11.64
2018-09-22T19:15:27.140Z,10.77
2018-09-22T19:21:28.082Z,12.66
2018-09-22T19:25:28.838Z,13.57
2018-09-22T19:27:29.587Z,13.18
2018-09-22T19:31:30.298Z,13.04
2018-09-22T19:37:31.041Z,12.56
2018-09-22T19:41:31.992Z,12.89
2018-09-22T19:47:32.925Z,12.61
2018-09-22T19:51:33.831Z,12.56
2018-09-22T19:53:36.520Z,13.32
2018-09-22T19:57:35.372Z,13.04
2018-09-22T20:03:36.082Z,12.69
2018-09-22T20:07:36.968Z,12.77
2018-09-22T20:13:37.768Z,12.71
2018-09-22T20:19:38.628Z,13.24
2018-09-22T20:23:39.378Z,12.69
2018-09-22T20:29:40.069Z,13.62
2018-09-22T20:33:40.849Z,14.19
2018-09-22T20:39:41.646Z,15.88
2018-09-22T20:45:42.728Z,15.24
2018-09-22T20:49:43.586Z,14.21
2018-09-22T20:55:44.505Z,15.11
2018-09-22T20:59:45.284Z,14.86
2018-09-22T21:05:46.025Z,15.69
2018-09-22T21:11:46.849Z,14.63
2018-09-22T21:15:47.625Z,14.63
2018-09-22T21:21:48.405Z,14.85
2018-09-22T21:25:49.146Z,14.77
2018-09-22T21:31:52.886Z,15.04
2018-09-22T21:37:50.583Z,16.34
2018-09-22T21:41:51.556Z,15.55
2018-09-22T21:47:52.360Z,15.67
2018-09-22T21:51:53.144Z,14.75
2018-09-22T21:57:54.046Z,14.81
2018-09-22T22:03:54.832Z,15.22
2018-09-22T22:07:55.715Z,14.86
2018-09-22T22:13:56.388Z,15.79
2018-09-22T22:17:57.154Z,15.04
2018-09-22T22:19:57.796Z,15.15
2018-09-22T22:23:58.789Z,15.66
2018-09-22T22:29:59.527Z,15.14
2018-09-22T22:34:00.518Z,14.83
2018-09-22T22:40:01.197Z,16.46
2018-09-22T22:44:02.072Z,16.6
2018-09-22T22:46:02.839Z,16.5
2018-09-22T22:50:03.585Z,16.84
2018-09-22T22:56:04.352Z,15.6
2018-09-22T23:00:05.172Z,16.45
2018-09-22T23:06:05.965Z,15.57
2018-09-22T23:10:06.788Z,16.34
2018-09-22T23:12:07.480Z,16.15
2018-09-22T23:16:08.247Z,15.14
2018-09-22T23:22:10.754Z,16.55
2018-09-22T23:26:09.851Z,15.92
2018-09-22T23:32:10.717Z,15.73
2018-09-22T23:36:11.485Z,16.01
2018-09-22T23:38:12.113Z,16.16
2018-09-22T23:42:12.971Z,16.37
2018-09-22T23:48:13.777Z,16.19
2018-09-22T23:52:16.034Z,16.32
2018-09-22T23:58:15.290Z,15.8
